Detall de PIREP

Printer-friendly versionPDF version

[2012/10/04 07:10:00]
Flight IATA:CT3402
Pilot Number:012
Company ICAO:CAT
Aircraft Type:A343/E
PAX:184
Departing Airport: LEBL
Destination Airport: ENGM
Alternate Airport:ENZV
Online: VATSIM
Route:OKABI/M080F380 UN861 FISTO UY156 ADABI UN858 VANAD UN874 VEKIN UN873 ADUTO UN873 HELEN UN873 SPY/M080F390 UZ704 AMADA Z704 PIPEX M609 RIPAM
Flight Level:F390
No Slew and time accel
No pause
Crash detect
Detect pilot in Cockpit between each 30 and 45 minutes
07:10 Zero fuel Weight: 332073 Lbs, Fuel Weight: 66472 Lbs
07:10 VATSIM:LEBL 040700Z 32006KT 6000 FEW025 18/16 Q1017 NOSIG
07:10 VATSIM:ENGM 040641Z 18008KT 9999 FEW003 SCT008 BKN011 07/06 Q0998 TEMPO BKN007
07:10 VOICE CATALONIAN
07:14 Parking Brakes off
07:21 Take-off
07:21 Take off Weight: 396677 Lbs
07:21 Wind: 311º @ 006 Knots Heading: 248º
07:21 POS N41º 17´ 06´´ E002º 04´ 56´´
07:21 Gear Up: 183 Knots
07:21 Flaps:2 at 183 Knots
07:21 Flaps:1 at 203 Knots
07:22 Flaps:0 at 242 Knots
07:36 Wind:276º@032 Knots Heading: 349º Ground Speed: 446 Knots Altitude 35255 ft
07:51 Wind:269º@058 Knots Heading: 348º Ground Speed: 461 Knots Altitude 38146 ft
08:06 Wind:265º@088 Knots Heading: 352º Ground Speed: 472 Knots Altitude 38064 ft
08:21 Wind:269º@093 Knots Heading: 008º Ground Speed: 496 Knots Altitude 37926 ft
08:36 Wind:260º@080 Knots Heading: 025º Ground Speed: 526 Knots Altitude 37834 ft
08:39 TOC
08:39 Fuel Weight: 44985 Lb
08:51 Wind:252º@063 Knots Heading: 019º Ground Speed: 517 Knots Altitude 39737 ft
09:06 Wind:250º@062 Knots Heading: 014º Ground Speed: 515 Knots Altitude 38677 ft
09:21 Wind:244º@041 Knots Heading: 019º Ground Speed: 510 Knots Altitude 38628 ft
09:36 Wind:241º@029 Knots Heading: 016º Ground Speed: 503 Knots Altitude 38562 ft
09:46 TOD
09:46 Fuel Weight: 32308 Lb
09:51 Wind:216º@017 Knots Heading: 012º Ground Speed: 376 Knots Altitude 21112 ft
10:02 Flaps:1 at 238 Knots
10:03 Flaps:3 at 219 Knots
10:06 Wind:182º@007 Knots Heading: 188º Ground Speed: 183 Knots Altitude 3986 ft
10:06 Flaps:4 at 157 Knots
10:06 Gear Down: 153 Knots
10:07 Flaps:5 at 142 Knots
10:10 TouchDown:Rate -165 ft/min Speed: 136 Knots
10:11 VATSIM:ENGM 040943Z 17006KT 9999 FEW007 SCT014 BKN031 09/07 Q0998 NOSIG
10:11 Land
10:11 Wind:174º@008 Knots
10:11 Heading: 195º
10:11 Flight Duration: 02:50
10:11 Landing Weight: 360913 Lbs
10:11 POS N60º 11´ 28´´ E011º 07´ 00´´
10:16 Parking brakes on
10:16 Block to Block Duration: 03:02
10:16 Final Fuel: 27874 Lbls
10:16 Spent Fuel: 38597 Lbls
10:16 Flight Length: 1291 NM
10:16 TOD Land Length: 120 NM

Exportar CSV

Powered by Drupal - Modified by Danger4k